sensor_id;sensor_type;location;lat;lon;timestamp;P1;durP1;ratioP1;P2;durP2;ratioP2
40320;SDS011;26027;51.454;6.628;2022-08-23T00:01:04;1.38;;;1.27;;
40320;SDS011;26027;51.454;6.628;2022-08-23T00:03:30;1.08;;;1.08;;
40320;SDS011;26027;51.454;6.628;2022-08-23T00:05:56;1.33;;;1.23;;
40320;SDS011;26027;51.454;6.628;2022-08-23T00:08:22;1.10;;;1.10;;
40320;SDS011;26027;51.454;6.628;2022-08-23T00:10:49;1.00;;;1.00;;
40320;SDS011;26027;51.454;6.628;2022-08-23T00:13:15;1.00;;;1.00;;
40320;SDS011;26027;51.454;6.628;2022-08-23T00:15:41;1.35;;;1.25;;
40320;SDS011;26027;51.454;6.628;2022-08-23T00:18:07;0.90;;;0.90;;
40320;SDS011;26027;51.454;6.628;2022-08-23T00:20:33;1.10;;;1.10;;
40320;SDS011;26027;51.454;6.628;2022-08-23T00:22:59;1.20;;;1.20;;
40320;SDS011;26027;51.454;6.628;2022-08-23T00:25:25;1.20;;;1.10;;
40320;SDS011;26027;51.454;6.628;2022-08-23T00:27:51;1.20;;;1.20;;
40320;SDS011;26027;51.454;6.628;2022-08-23T00:30:17;1.20;;;1.10;;
40320;SDS011;26027;51.454;6.628;2022-08-23T00:32:43;1.08;;;1.08;;
40320;SDS011;26027;51.454;6.628;2022-08-23T00:35:11;1.00;;;1.00;;
40320;SDS011;26027;51.454;6.628;2022-08-23T00:37:37;1.17;;;1.17;;
40320;SDS011;26027;51.454;6.628;2022-08-23T00:40:07;1.15;;;1.15;;
40320;SDS011;26027;51.454;6.628;2022-08-23T00:42:40;1.10;;;1.10;;
40320;SDS011;26027;51.454;6.628;2022-08-23T00:45:42;1.27;;;1.23;;
40320;SDS011;26027;51.454;6.628;2022-08-23T00:48:30;1.00;;;1.00;;
40320;SDS011;26027;51.454;6.628;2022-08-23T00:50:59;1.48;;;1.38;;
40320;SDS011;26027;51.454;6.628;2022-08-23T00:53:31;1.10;;;1.10;;
40320;SDS011;26027;51.454;6.628;2022-08-23T00:55:58;1.30;;;1.20;;
40320;SDS011;26027;51.454;6.628;2022-08-23T00:58:25;1.40;;;1.30;;
40320;SDS011;26027;51.454;6.628;2022-08-23T01:00:51;1.38;;;1.27;;
40320;SDS011;26027;51.454;6.628;2022-08-23T01:03:19;0.90;;;0.90;;
40320;SDS011;26027;51.454;6.628;2022-08-23T01:05:46;1.00;;;1.00;;
40320;SDS011;26027;51.454;6.628;2022-08-23T01:08:16;1.17;;;1.17;;
40320;SDS011;26027;51.454;6.628;2022-08-23T01:10:45;1.00;;;1.00;;
40320;SDS011;26027;51.454;6.628;2022-08-23T01:13:19;1.10;;;1.10;;
40320;SDS011;26027;51.454;6.628;2022-08-23T01:15:50;1.00;;;1.00;;
40320;SDS011;26027;51.454;6.628;2022-08-23T01:18:18;1.00;;;1.00;;
40320;SDS011;26027;51.454;6.628;2022-08-23T01:25:53;1.10;;;1.10;;
40320;SDS011;26027;51.454;6.628;2022-08-23T01:28:19;1.08;;;1.08;;
40320;SDS011;26027;51.454;6.628;2022-08-23T01:30:45;1.10;;;1.10;;
40320;SDS011;26027;51.454;6.628;2022-08-23T01:33:12;0.90;;;0.90;;
40320;SDS011;26027;51.454;6.628;2022-08-23T01:35:40;1.20;;;1.20;;
40320;SDS011;26027;51.454;6.628;2022-08-23T01:38:07;1.10;;;1.10;;
40320;SDS011;26027;51.454;6.628;2022-08-23T01:40:33;1.00;;;1.00;;
40320;SDS011;26027;51.454;6.628;2022-08-23T01:42:59;1.17;;;1.17;;
40320;SDS011;26027;51.454;6.628;2022-08-23T01:45:26;1.35;;;1.25;;
40320;SDS011;26027;51.454;6.628;2022-08-23T01:47:52;1.00;;;1.00;;
40320;SDS011;26027;51.454;6.628;2022-08-23T01:50:19;1.00;;;1.00;;
40320;SDS011;26027;51.454;6.628;2022-08-23T01:52:45;1.00;;;1.00;;
40320;SDS011;26027;51.454;6.628;2022-08-23T01:55:11;1.00;;;1.00;;
40320;SDS011;26027;51.454;6.628;2022-08-23T01:57:37;1.00;;;1.00;;
40320;SDS011;26027;51.454;6.628;2022-08-23T02:00:05;1.10;;;1.10;;
40320;SDS011;26027;51.454;6.628;2022-08-23T02:02:32;1.10;;;1.10;;
40320;SDS011;26027;51.454;6.628;2022-08-23T02:04:58;1.05;;;1.05;;
40320;SDS011;26027;51.454;6.628;2022-08-23T02:07:27;1.00;;;1.00;;
40320;SDS011;26027;51.454;6.628;2022-08-23T02:09:53;1.00;;;1.00;;
40320;SDS011;26027;51.454;6.628;2022-08-23T02:12:20;1.20;;;1.20;;
40320;SDS011;26027;51.454;6.628;2022-08-23T02:14:46;0.98;;;0.98;;
40320;SDS011;26027;51.454;6.628;2022-08-23T02:17:12;0.95;;;0.95;;
40320;SDS011;26027;51.454;6.628;2022-08-23T02:19:40;1.20;;;1.20;;
40320;SDS011;26027;51.454;6.628;2022-08-23T02:22:07;0.82;;;0.82;;
40320;SDS011;26027;51.454;6.628;2022-08-23T02:24:34;1.05;;;1.05;;
40320;SDS011;26027;51.454;6.628;2022-08-23T02:27:01;1.10;;;1.10;;
40320;SDS011;26027;51.454;6.628;2022-08-23T02:29:28;0.95;;;0.95;;
40320;SDS011;26027;51.454;6.628;2022-08-23T02:31:54;1.10;;;1.10;;
40320;SDS011;26027;51.454;6.628;2022-08-23T02:34:21;0.80;;;0.80;;
40320;SDS011;26027;51.454;6.628;2022-08-23T02:36:47;0.90;;;0.90;;
40320;SDS011;26027;51.454;6.628;2022-08-23T02:39:14;1.10;;;1.10;;
40320;SDS011;26027;51.454;6.628;2022-08-23T02:41:41;1.00;;;1.00;;
40320;SDS011;26027;51.454;6.628;2022-08-23T02:44:07;1.10;;;1.10;;
40320;SDS011;26027;51.454;6.628;2022-08-23T02:46:34;1.02;;;1.02;;
40320;SDS011;26027;51.454;6.628;2022-08-23T02:49:00;0.90;;;0.90;;
40320;SDS011;26027;51.454;6.628;2022-08-23T02:51:26;1.05;;;1.05;;
40320;SDS011;26027;51.454;6.628;2022-08-23T02:53:53;1.08;;;1.08;;
40320;SDS011;26027;51.454;6.628;2022-08-23T02:56:19;1.02;;;1.02;;
40320;SDS011;26027;51.454;6.628;2022-08-23T02:58:45;1.08;;;1.00;;
40320;SDS011;26027;51.454;6.628;2022-08-23T03:01:18;1.00;;;1.00;;
40320;SDS011;26027;51.454;6.628;2022-08-23T03:03:44;0.85;;;0.85;;
40320;SDS011;26027;51.454;6.628;2022-08-23T03:06:11;1.02;;;1.02;;
40320;SDS011;26027;51.454;6.628;2022-08-23T03:08:37;1.10;;;1.10;;
40320;SDS011;26027;51.454;6.628;2022-08-23T03:11:09;1.00;;;1.00;;
40320;SDS011;26027;51.454;6.628;2022-08-23T03:13:35;1.10;;;1.10;;
40320;SDS011;26027;51.454;6.628;2022-08-23T03:16:02;0.98;;;0.98;;
40320;SDS011;26027;51.454;6.628;2022-08-23T03:18:28;0.93;;;0.93;;
40320;SDS011;26027;51.454;6.628;2022-08-23T03:20:54;0.98;;;0.98;;
40320;SDS011;26027;51.454;6.628;2022-08-23T03:23:20;0.80;;;0.80;;
40320;SDS011;26027;51.454;6.628;2022-08-23T03:25:46;0.90;;;0.90;;
40320;SDS011;26027;51.454;6.628;2022-08-23T03:28:12;1.02;;;1.02;;
40320;SDS011;26027;51.454;6.628;2022-08-23T03:30:38;1.10;;;1.10;;
40320;SDS011;26027;51.454;6.628;2022-08-23T03:33:04;0.90;;;0.90;;
40320;SDS011;26027;51.454;6.628;2022-08-23T03:35:30;0.90;;;0.90;;
40320;SDS011;26027;51.454;6.628;2022-08-23T03:37:56;0.88;;;0.88;;
40320;SDS011;26027;51.454;6.628;2022-08-23T03:40:22;0.80;;;0.80;;
40320;SDS011;26027;51.454;6.628;2022-08-23T03:42:49;0.93;;;0.93;;
40320;SDS011;26027;51.454;6.628;2022-08-23T03:45:16;0.95;;;0.95;;
40320;SDS011;26027;51.454;6.628;2022-08-23T03:47:42;1.10;;;1.10;;
40320;SDS011;26027;51.454;6.628;2022-08-23T03:50:08;1.00;;;1.00;;
40320;SDS011;26027;51.454;6.628;2022-08-23T03:52:34;1.00;;;1.00;;
40320;SDS011;26027;51.454;6.628;2022-08-23T03:55:00;0.90;;;0.90;;
40320;SDS011;26027;51.454;6.628;2022-08-23T03:57:26;0.98;;;0.98;;
40320;SDS011;26027;51.454;6.628;2022-08-23T03:59:52;0.95;;;0.80;;
40320;SDS011;26027;51.454;6.628;2022-08-23T04:02:18;0.90;;;0.90;;
40320;SDS011;26027;51.454;6.628;2022-08-23T04:04:44;1.00;;;1.00;;
40320;SDS011;26027;51.454;6.628;2022-08-23T04:07:10;1.02;;;1.02;;
40320;SDS011;26027;51.454;6.628;2022-08-23T04:09:36;0.93;;;0.93;;
40320;SDS011;26027;51.454;6.628;2022-08-23T04:12:02;0.90;;;0.90;;
40320;SDS011;26027;51.454;6.628;2022-08-23T04:14:28;0.95;;;0.95;;
40320;SDS011;26027;51.454;6.628;2022-08-23T04:16:54;0.98;;;0.98;;
40320;SDS011;26027;51.454;6.628;2022-08-23T04:19:21;1.00;;;1.00;;
40320;SDS011;26027;51.454;6.628;2022-08-23T04:21:47;0.90;;;0.90;;
40320;SDS011;26027;51.454;6.628;2022-08-23T04:24:14;3.17;;;1.70;;
40320;SDS011;26027;51.454;6.628;2022-08-23T04:26:41;3.63;;;2.80;;
40320;SDS011;26027;51.454;6.628;2022-08-23T04:29:07;3.88;;;3.03;;
40320;SDS011;26027;51.454;6.628;2022-08-23T04:31:33;3.83;;;2.70;;
40320;SDS011;26027;51.454;6.628;2022-08-23T04:34:00;3.33;;;2.88;;
40320;SDS011;26027;51.454;6.628;2022-08-23T04:36:27;3.72;;;3.33;;
40320;SDS011;26027;51.454;6.628;2022-08-23T04:38:54;4.35;;;3.45;;
40320;SDS011;26027;51.454;6.628;2022-08-23T04:41:20;4.57;;;3.55;;
40320;SDS011;26027;51.454;6.628;2022-08-23T04:44:04;5.03;;;3.65;;
40320;SDS011;26027;51.454;6.628;2022-08-23T04:46:30;3.80;;;3.47;;
40320;SDS011;26027;51.454;6.628;2022-08-23T04:48:57;5.07;;;3.53;;
40320;SDS011;26027;51.454;6.628;2022-08-23T04:51:23;5.28;;;3.40;;
40320;SDS011;26027;51.454;6.628;2022-08-23T04:53:49;4.85;;;3.63;;
40320;SDS011;26027;51.454;6.628;2022-08-23T04:56:15;6.20;;;3.63;;
40320;SDS011;26027;51.454;6.628;2022-08-23T04:58:42;4.53;;;3.80;;
40320;SDS011;26027;51.454;6.628;2022-08-23T05:01:09;5.88;;;3.75;;
40320;SDS011;26027;51.454;6.628;2022-08-23T05:03:35;5.38;;;3.65;;
40320;SDS011;26027;51.454;6.628;2022-08-23T05:06:01;5.78;;;3.83;;
40320;SDS011;26027;51.454;6.628;2022-08-23T05:08:29;6.47;;;4.18;;
40320;SDS011;26027;51.454;6.628;2022-08-23T05:10:57;6.43;;;3.85;;
40320;SDS011;26027;51.454;6.628;2022-08-23T05:13:23;5.97;;;3.88;;
40320;SDS011;26027;51.454;6.628;2022-08-23T05:15:50;6.38;;;4.25;;
40320;SDS011;26027;51.454;6.628;2022-08-23T05:18:16;6.32;;;4.00;;
40320;SDS011;26027;51.454;6.628;2022-08-23T05:20:42;4.43;;;3.92;;
40320;SDS011;26027;51.454;6.628;2022-08-23T05:23:08;5.38;;;4.25;;
40320;SDS011;26027;51.454;6.628;2022-08-23T05:25:35;6.03;;;4.38;;
40320;SDS011;26027;51.454;6.628;2022-08-23T05:28:21;4.95;;;4.43;;
40320;SDS011;26027;51.454;6.628;2022-08-23T05:31:21;6.78;;;4.38;;
40320;SDS011;26027;51.454;6.628;2022-08-23T05:33:40;5.45;;;4.60;;
40320;SDS011;26027;51.454;6.628;2022-08-23T05:36:07;5.45;;;4.30;;
40320;SDS011;26027;51.454;6.628;2022-08-23T05:38:34;8.10;;;5.15;;
40320;SDS011;26027;51.454;6.628;2022-08-23T05:41:00;6.07;;;4.70;;
40320;SDS011;26027;51.454;6.628;2022-08-23T05:43:27;4.90;;;4.07;;
40320;SDS011;26027;51.454;6.628;2022-08-23T05:46:01;7.38;;;4.65;;
40320;SDS011;26027;51.454;6.628;2022-08-23T05:48:27;9.27;;;5.25;;
40320;SDS011;26027;51.454;6.628;2022-08-23T05:50:53;7.53;;;4.68;;
40320;SDS011;26027;51.454;6.628;2022-08-23T05:53:19;6.68;;;4.63;;
40320;SDS011;26027;51.454;6.628;2022-08-23T05:55:45;6.30;;;4.97;;
40320;SDS011;26027;51.454;6.628;2022-08-23T05:58:12;9.05;;;4.70;;
40320;SDS011;26027;51.454;6.628;2022-08-23T06:00:38;7.90;;;5.00;;
40320;SDS011;26027;51.454;6.628;2022-08-23T06:03:04;8.45;;;4.90;;
40320;SDS011;26027;51.454;6.628;2022-08-23T06:05:30;9.30;;;5.20;;
40320;SDS011;26027;51.454;6.628;2022-08-23T06:07:57;6.97;;;4.63;;
40320;SDS011;26027;51.454;6.628;2022-08-23T06:10:24;8.32;;;4.65;;
40320;SDS011;26027;51.454;6.628;2022-08-23T06:12:50;10.27;;;5.15;;
40320;SDS011;26027;51.454;6.628;2022-08-23T06:15:16;7.53;;;4.72;;
40320;SDS011;26027;51.454;6.628;2022-08-23T06:17:42;5.90;;;4.78;;
40320;SDS011;26027;51.454;6.628;2022-08-23T06:20:08;6.68;;;4.53;;
40320;SDS011;26027;51.454;6.628;2022-08-23T06:22:35;9.85;;;5.03;;
40320;SDS011;26027;51.454;6.628;2022-08-23T06:25:01;7.15;;;5.07;;
40320;SDS011;26027;51.454;6.628;2022-08-23T06:27:27;9.68;;;5.63;;
40320;SDS011;26027;51.454;6.628;2022-08-23T06:29:53;7.38;;;4.70;;
40320;SDS011;26027;51.454;6.628;2022-08-23T06:32:19;5.68;;;4.53;;
40320;SDS011;26027;51.454;6.628;2022-08-23T06:34:45;8.45;;;5.15;;
40320;SDS011;26027;51.454;6.628;2022-08-23T06:37:12;5.10;;;4.32;;
40320;SDS011;26027;51.454;6.628;2022-08-23T06:39:39;7.25;;;5.10;;
40320;SDS011;26027;51.454;6.628;2022-08-23T06:42:13;8.75;;;4.82;;
40320;SDS011;26027;51.454;6.628;2022-08-23T06:44:40;8.93;;;4.95;;
40320;SDS011;26027;51.454;6.628;2022-08-23T06:47:07;7.15;;;4.55;;
40320;SDS011;26027;51.454;6.628;2022-08-23T06:49:33;9.32;;;4.43;;
40320;SDS011;26027;51.454;6.628;2022-08-23T06:52:00;6.60;;;4.18;;
40320;SDS011;26027;51.454;6.628;2022-08-23T06:54:29;7.00;;;4.28;;
40320;SDS011;26027;51.454;6.628;2022-08-23T06:56:56;8.02;;;4.00;;
40320;SDS011;26027;51.454;6.628;2022-08-23T06:59:23;9.15;;;3.97;;
40320;SDS011;26027;51.454;6.628;2022-08-23T07:01:51;7.00;;;3.90;;
40320;SDS011;26027;51.454;6.628;2022-08-23T07:04:21;6.07;;;3.40;;
40320;SDS011;26027;51.454;6.628;2022-08-23T07:06:48;5.05;;;3.35;;
40320;SDS011;26027;51.454;6.628;2022-08-23T07:09:14;5.43;;;3.47;;
40320;SDS011;26027;51.454;6.628;2022-08-23T07:11:42;4.35;;;3.40;;
40320;SDS011;26027;51.454;6.628;2022-08-23T07:14:09;4.65;;;3.65;;
40320;SDS011;26027;51.454;6.628;2022-08-23T07:16:38;7.20;;;3.50;;
40320;SDS011;26027;51.454;6.628;2022-08-23T07:19:04;6.88;;;3.70;;
40320;SDS011;26027;51.454;6.628;2022-08-23T07:21:30;4.90;;;3.30;;
40320;SDS011;26027;51.454;6.628;2022-08-23T07:23:56;4.28;;;3.00;;
40320;SDS011;26027;51.454;6.628;2022-08-23T07:26:22;5.07;;;3.45;;
40320;SDS011;26027;51.454;6.628;2022-08-23T07:28:49;3.92;;;3.25;;
40320;SDS011;26027;51.454;6.628;2022-08-23T07:31:17;5.22;;;3.15;;
40320;SDS011;26027;51.454;6.628;2022-08-23T07:33:44;6.32;;;3.40;;
40320;SDS011;26027;51.454;6.628;2022-08-23T07:36:14;4.53;;;3.22;;
40320;SDS011;26027;51.454;6.628;2022-08-23T07:38:41;4.07;;;3.08;;
40320;SDS011;26027;51.454;6.628;2022-08-23T07:41:07;4.05;;;3.53;;
40320;SDS011;26027;51.454;6.628;2022-08-23T07:43:34;4.47;;;3.03;;
40320;SDS011;26027;51.454;6.628;2022-08-23T07:46:00;5.60;;;3.25;;
40320;SDS011;26027;51.454;6.628;2022-08-23T07:48:27;5.00;;;3.20;;
40320;SDS011;26027;51.454;6.628;2022-08-23T07:50:54;4.57;;;3.22;;
40320;SDS011;26027;51.454;6.628;2022-08-23T07:53:21;3.95;;;3.03;;
40320;SDS011;26027;51.454;6.628;2022-08-23T07:55:49;6.43;;;3.22;;
40320;SDS011;26027;51.454;6.628;2022-08-23T07:58:15;3.95;;;3.10;;
40320;SDS011;26027;51.454;6.628;2022-08-23T08:00:41;4.10;;;2.97;;
40320;SDS011;26027;51.454;6.628;2022-08-23T08:03:07;4.95;;;3.10;;
40320;SDS011;26027;51.454;6.628;2022-08-23T08:05:34;3.00;;;2.70;;
40320;SDS011;26027;51.454;6.628;2022-08-23T08:08:01;8.02;;;3.05;;
40320;SDS011;26027;51.454;6.628;2022-08-23T08:10:27;5.85;;;3.25;;
40320;SDS011;26027;51.454;6.628;2022-08-23T08:12:53;4.88;;;3.20;;
40320;SDS011;26027;51.454;6.628;2022-08-23T08:15:19;6.05;;;3.45;;
40320;SDS011;26027;51.454;6.628;2022-08-23T08:17:46;4.32;;;3.17;;
40320;SDS011;26027;51.454;6.628;2022-08-23T08:20:13;5.60;;;3.58;;
40320;SDS011;26027;51.454;6.628;2022-08-23T08:22:39;5.93;;;3.20;;
40320;SDS011;26027;51.454;6.628;2022-08-23T08:25:06;4.70;;;3.17;;
40320;SDS011;26027;51.454;6.628;2022-08-23T08:27:32;5.78;;;3.58;;
40320;SDS011;26027;51.454;6.628;2022-08-23T08:29:58;5.18;;;3.33;;
40320;SDS011;26027;51.454;6.628;2022-08-23T08:32:24;6.18;;;3.33;;
40320;SDS011;26027;51.454;6.628;2022-08-23T08:34:51;6.05;;;3.00;;
40320;SDS011;26027;51.454;6.628;2022-08-23T08:37:17;7.03;;;3.25;;
40320;SDS011;26027;51.454;6.628;2022-08-23T08:39:43;7.53;;;3.83;;
40320;SDS011;26027;51.454;6.628;2022-08-23T08:42:27;7.95;;;3.40;;
40320;SDS011;26027;51.454;6.628;2022-08-23T08:45:02;9.05;;;3.38;;
40320;SDS011;26027;51.454;6.628;2022-08-23T08:55:10;6.30;;;3.47;;
40320;SDS011;26027;51.454;6.628;2022-08-23T08:57:37;9.85;;;3.35;;
40320;SDS011;26027;51.454;6.628;2022-08-23T09:00:08;6.53;;;3.03;;
40320;SDS011;26027;51.454;6.628;2022-08-23T09:02:37;6.20;;;2.97;;
40320;SDS011;26027;51.454;6.628;2022-08-23T09:05:05;7.25;;;3.00;;
40320;SDS011;26027;51.454;6.628;2022-08-23T09:10:27;6.05;;;3.20;;
40320;SDS011;26027;51.454;6.628;2022-08-23T09:13:02;5.88;;;3.28;;
40320;SDS011;26027;51.454;6.628;2022-08-23T09:18:07;5.90;;;2.97;;
40320;SDS011;26027;51.454;6.628;2022-08-23T09:20:33;5.70;;;2.95;;
40320;SDS011;26027;51.454;6.628;2022-08-23T09:25:51;6.07;;;3.03;;
40320;SDS011;26027;51.454;6.628;2022-08-23T09:28:18;6.50;;;3.22;;
40320;SDS011;26027;51.454;6.628;2022-08-23T09:33:17;5.57;;;3.40;;
40320;SDS011;26027;51.454;6.628;2022-08-23T09:35:44;8.73;;;3.35;;
40320;SDS011;26027;51.454;6.628;2022-08-23T09:38:26;11.20;;;3.58;;
40320;SDS011;26027;51.454;6.628;2022-08-23T09:40:53;5.28;;;3.42;;
40320;SDS011;26027;51.454;6.628;2022-08-23T09:43:24;7.80;;;3.10;;
40320;SDS011;26027;51.454;6.628;2022-08-23T09:51:15;6.38;;;2.80;;
40320;SDS011;26027;51.454;6.628;2022-08-23T09:53:46;6.70;;;2.97;;
40320;SDS011;26027;51.454;6.628;2022-08-23T09:56:21;4.80;;;3.05;;
40320;SDS011;26027;51.454;6.628;2022-08-23T09:58:48;4.50;;;2.63;;
40320;SDS011;26027;51.454;6.628;2022-08-23T10:01:24;5.35;;;2.92;;
40320;SDS011;26027;51.454;6.628;2022-08-23T10:04:12;5.03;;;2.63;;
40320;SDS011;26027;51.454;6.628;2022-08-23T10:06:39;5.80;;;2.70;;
40320;SDS011;26027;51.454;6.628;2022-08-23T10:09:06;6.43;;;2.97;;
40320;SDS011;26027;51.454;6.628;2022-08-23T10:11:35;5.25;;;2.90;;
40320;SDS011;26027;51.454;6.628;2022-08-23T10:14:02;5.63;;;3.17;;
40320;SDS011;26027;51.454;6.628;2022-08-23T10:16:36;7.28;;;3.05;;
40320;SDS011;26027;51.454;6.628;2022-08-23T10:21:41;6.97;;;3.00;;
40320;SDS011;26027;51.454;6.628;2022-08-23T10:24:20;6.75;;;2.83;;
40320;SDS011;26027;51.454;6.628;2022-08-23T10:29:23;6.63;;;3.28;;
40320;SDS011;26027;51.454;6.628;2022-08-23T10:40:17;2.95;;;2.70;;
40320;SDS011;26027;51.454;6.628;2022-08-23T10:43:07;5.65;;;2.67;;
40320;SDS011;26027;51.454;6.628;2022-08-23T10:45:39;6.75;;;3.25;;
40320;SDS011;26027;51.454;6.628;2022-08-23T10:50:38;4.45;;;3.13;;
40320;SDS011;26027;51.454;6.628;2022-08-23T10:53:07;7.20;;;3.35;;
40320;SDS011;26027;51.454;6.628;2022-08-23T10:55:39;4.32;;;2.97;;
40320;SDS011;26027;51.454;6.628;2022-08-23T10:58:23;3.35;;;2.92;;
40320;SDS011;26027;51.454;6.628;2022-08-23T11:00:50;4.55;;;3.13;;
40320;SDS011;26027;51.454;6.628;2022-08-23T11:03:20;7.65;;;3.33;;
40320;SDS011;26027;51.454;6.628;2022-08-23T11:08:34;4.50;;;2.90;;
40320;SDS011;26027;51.454;6.628;2022-08-23T11:11:00;7.88;;;3.08;;
40320;SDS011;26027;51.454;6.628;2022-08-23T11:13:28;10.15;;;3.08;;
40320;SDS011;26027;51.454;6.628;2022-08-23T11:26:03;5.53;;;3.03;;
40320;SDS011;26027;51.454;6.628;2022-08-23T11:28:41;4.57;;;3.03;;
40320;SDS011;26027;51.454;6.628;2022-08-23T11:43:45;6.05;;;2.92;;
40320;SDS011;26027;51.454;6.628;2022-08-23T11:46:12;5.50;;;3.17;;
40320;SDS011;26027;51.454;6.628;2022-08-23T11:48:40;5.38;;;3.15;;
40320;SDS011;26027;51.454;6.628;2022-08-23T11:51:16;5.90;;;3.33;;
40320;SDS011;26027;51.454;6.628;2022-08-23T12:01:15;9.00;;;2.97;;
40320;SDS011;26027;51.454;6.628;2022-08-23T12:03:55;3.50;;;2.83;;
40320;SDS011;26027;51.454;6.628;2022-08-23T12:11:20;5.13;;;2.78;;
40320;SDS011;26027;51.454;6.628;2022-08-23T12:24:01;4.53;;;2.70;;
40320;SDS011;26027;51.454;6.628;2022-08-23T12:39:30;7.43;;;3.00;;
40320;SDS011;26027;51.454;6.628;2022-08-23T12:44:27;6.35;;;2.88;;
40320;SDS011;26027;51.454;6.628;2022-08-23T12:46:54;3.70;;;2.80;;
40320;SDS011;26027;51.454;6.628;2022-08-23T12:49:25;4.78;;;2.70;;
40320;SDS011;26027;51.454;6.628;2022-08-23T12:51:52;5.60;;;2.80;;
40320;SDS011;26027;51.454;6.628;2022-08-23T12:54:20;3.60;;;2.58;;
40320;SDS011;26027;51.454;6.628;2022-08-23T12:56:47;3.80;;;2.53;;
40320;SDS011;26027;51.454;6.628;2022-08-23T12:59:37;5.15;;;2.90;;
40320;SDS011;26027;51.454;6.628;2022-08-23T13:02:01;3.95;;;2.47;;
40320;SDS011;26027;51.454;6.628;2022-08-23T13:04:29;4.22;;;2.70;;
40320;SDS011;26027;51.454;6.628;2022-08-23T13:06:58;5.15;;;2.70;;
40320;SDS011;26027;51.454;6.628;2022-08-23T13:09:36;3.95;;;2.47;;
40320;SDS011;26027;51.454;6.628;2022-08-23T13:12:04;3.65;;;2.40;;
40320;SDS011;26027;51.454;6.628;2022-08-23T13:16:57;4.72;;;2.60;;
40320;SDS011;26027;51.454;6.628;2022-08-23T13:19:36;3.63;;;2.50;;
40320;SDS011;26027;51.454;6.628;2022-08-23T13:24:39;6.45;;;2.50;;
40320;SDS011;26027;51.454;6.628;2022-08-23T13:27:09;5.38;;;2.53;;
40320;SDS011;26027;51.454;6.628;2022-08-23T13:29:47;3.88;;;2.40;;
40320;SDS011;26027;51.454;6.628;2022-08-23T13:37:53;2.78;;;2.33;;
40320;SDS011;26027;51.454;6.628;2022-08-23T13:40:24;2.38;;;2.17;;
40320;SDS011;26027;51.454;6.628;2022-08-23T13:42:54;2.72;;;1.92;;
40320;SDS011;26027;51.454;6.628;2022-08-23T13:45:26;2.72;;;1.95;;
40320;SDS011;26027;51.454;6.628;2022-08-23T13:48:00;3.70;;;2.28;;
40320;SDS011;26027;51.454;6.628;2022-08-23T13:50:28;8.40;;;3.08;;
40320;SDS011;26027;51.454;6.628;2022-08-23T13:52:55;4.30;;;2.15;;
40320;SDS011;26027;51.454;6.628;2022-08-23T13:55:22;2.38;;;1.90;;
40320;SDS011;26027;51.454;6.628;2022-08-23T13:57:48;3.42;;;2.30;;
40320;SDS011;26027;51.454;6.628;2022-08-23T14:00:15;3.22;;;2.13;;
40320;SDS011;26027;51.454;6.628;2022-08-23T14:02:41;3.22;;;2.45;;
40320;SDS011;26027;51.454;6.628;2022-08-23T14:05:08;3.88;;;2.10;;
40320;SDS011;26027;51.454;6.628;2022-08-23T14:07:34;3.92;;;2.10;;
40320;SDS011;26027;51.454;6.628;2022-08-23T14:10:00;3.20;;;2.05;;
40320;SDS011;26027;51.454;6.628;2022-08-23T14:12:28;3.28;;;1.80;;
40320;SDS011;26027;51.454;6.628;2022-08-23T14:14:55;4.80;;;1.98;;
40320;SDS011;26027;51.454;6.628;2022-08-23T14:17:22;2.72;;;1.88;;
40320;SDS011;26027;51.454;6.628;2022-08-23T14:19:48;2.17;;;2.00;;
40320;SDS011;26027;51.454;6.628;2022-08-23T14:22:14;2.90;;;2.00;;
40320;SDS011;26027;51.454;6.628;2022-08-23T14:24:41;3.45;;;1.92;;
40320;SDS011;26027;51.454;6.628;2022-08-23T14:27:08;1.80;;;1.70;;
40320;SDS011;26027;51.454;6.628;2022-08-23T14:29:34;2.90;;;1.85;;
40320;SDS011;26027;51.454;6.628;2022-08-23T14:32:00;4.57;;;1.75;;
40320;SDS011;26027;51.454;6.628;2022-08-23T14:34:26;4.55;;;1.98;;
40320;SDS011;26027;51.454;6.628;2022-08-23T14:36:53;3.03;;;1.95;;
40320;SDS011;26027;51.454;6.628;2022-08-23T14:39:19;5.20;;;1.73;;
40320;SDS011;26027;51.454;6.628;2022-08-23T14:41:46;2.50;;;1.73;;
40320;SDS011;26027;51.454;6.628;2022-08-23T14:44:12;2.80;;;1.85;;
40320;SDS011;26027;51.454;6.628;2022-08-23T14:46:40;3.22;;;1.77;;
40320;SDS011;26027;51.454;6.628;2022-08-23T14:49:06;2.17;;;1.60;;
40320;SDS011;26027;51.454;6.628;2022-08-23T14:51:33;2.33;;;1.52;;
40320;SDS011;26027;51.454;6.628;2022-08-23T14:54:00;3.17;;;1.70;;
40320;SDS011;26027;51.454;6.628;2022-08-23T14:56:28;3.15;;;1.67;;
40320;SDS011;26027;51.454;6.628;2022-08-23T14:58:54;2.78;;;1.75;;
40320;SDS011;26027;51.454;6.628;2022-08-23T15:01:20;3.75;;;1.73;;
40320;SDS011;26027;51.454;6.628;2022-08-23T15:03:47;2.90;;;1.80;;
40320;SDS011;26027;51.454;6.628;2022-08-23T15:06:14;3.53;;;1.70;;
40320;SDS011;26027;51.454;6.628;2022-08-23T15:08:41;4.38;;;1.95;;
40320;SDS011;26027;51.454;6.628;2022-08-23T15:11:07;2.25;;;1.50;;
40320;SDS011;26027;51.454;6.628;2022-08-23T15:13:35;3.15;;;1.40;;
40320;SDS011;26027;51.454;6.628;2022-08-23T15:16:02;1.75;;;1.58;;
40320;SDS011;26027;51.454;6.628;2022-08-23T15:18:29;3.22;;;1.80;;
40320;SDS011;26027;51.454;6.628;2022-08-23T15:20:56;3.90;;;1.70;;
40320;SDS011;26027;51.454;6.628;2022-08-23T15:23:22;5.47;;;1.92;;
40320;SDS011;26027;51.454;6.628;2022-08-23T15:25:48;4.93;;;1.67;;
40320;SDS011;26027;51.454;6.628;2022-08-23T15:28:15;1.60;;;1.42;;
40320;SDS011;26027;51.454;6.628;2022-08-23T15:30:43;3.72;;;1.65;;
40320;SDS011;26027;51.454;6.628;2022-08-23T15:33:09;2.90;;;1.73;;
40320;SDS011;26027;51.454;6.628;2022-08-23T15:35:53;4.82;;;1.80;;
40320;SDS011;26027;51.454;6.628;2022-08-23T15:38:20;4.35;;;1.52;;
40320;SDS011;26027;51.454;6.628;2022-08-23T15:40:47;2.83;;;1.60;;
40320;SDS011;26027;51.454;6.628;2022-08-23T15:43:14;2.45;;;1.67;;
40320;SDS011;26027;51.454;6.628;2022-08-23T15:45:40;2.08;;;1.70;;
40320;SDS011;26027;51.454;6.628;2022-08-23T15:50:44;2.97;;;1.50;;
40320;SDS011;26027;51.454;6.628;2022-08-23T15:53:11;2.85;;;1.67;;
40320;SDS011;26027;51.454;6.628;2022-08-23T15:55:37;2.67;;;1.40;;
40320;SDS011;26027;51.454;6.628;2022-08-23T15:58:04;1.33;;;1.25;;
40320;SDS011;26027;51.454;6.628;2022-08-23T16:00:30;1.80;;;1.63;;
40320;SDS011;26027;51.454;6.628;2022-08-23T16:02:56;2.17;;;1.70;;
40320;SDS011;26027;51.454;6.628;2022-08-23T16:05:22;2.50;;;1.50;;
40320;SDS011;26027;51.454;6.628;2022-08-23T16:07:50;2.72;;;1.80;;
40320;SDS011;26027;51.454;6.628;2022-08-23T16:10:18;2.08;;;1.67;;
40320;SDS011;26027;51.454;6.628;2022-08-23T16:12:44;3.80;;;1.50;;
40320;SDS011;26027;51.454;6.628;2022-08-23T16:15:10;1.52;;;1.42;;
40320;SDS011;26027;51.454;6.628;2022-08-23T16:17:36;1.52;;;1.42;;
40320;SDS011;26027;51.454;6.628;2022-08-23T16:20:03;1.27;;;1.27;;
40320;SDS011;26027;51.454;6.628;2022-08-23T16:22:30;1.95;;;1.70;;
40320;SDS011;26027;51.454;6.628;2022-08-23T16:24:56;1.60;;;1.50;;
40320;SDS011;26027;51.454;6.628;2022-08-23T16:27:24;1.92;;;1.80;;
40320;SDS011;26027;51.454;6.628;2022-08-23T16:29:50;1.63;;;1.52;;
40320;SDS011;26027;51.454;6.628;2022-08-23T16:32:16;2.15;;;1.60;;
40320;SDS011;26027;51.454;6.628;2022-08-23T16:34:42;1.77;;;1.40;;
40320;SDS011;26027;51.454;6.628;2022-08-23T16:37:08;1.50;;;1.40;;
40320;SDS011;26027;51.454;6.628;2022-08-23T16:39:34;1.40;;;1.30;;
40320;SDS011;26027;51.454;6.628;2022-08-23T16:42:01;2.15;;;1.50;;
40320;SDS011;26027;51.454;6.628;2022-08-23T16:44:28;1.45;;;1.35;;
40320;SDS011;26027;51.454;6.628;2022-08-23T16:46:54;1.90;;;1.70;;
40320;SDS011;26027;51.454;6.628;2022-08-23T16:49:21;2.03;;;1.60;;
40320;SDS011;26027;51.454;6.628;2022-08-23T16:51:47;1.50;;;1.40;;
40320;SDS011;26027;51.454;6.628;2022-08-23T16:54:13;1.83;;;1.30;;